createdAt,value
2019-05-26T00:01:14.544Z,10.32
2019-05-26T00:03:48.380Z,10.70
2019-05-26T00:06:22.099Z,9.33
2019-05-26T00:08:55.778Z,10.50
2019-05-26T00:11:29.440Z,10.88
2019-05-26T00:14:04.721Z,11.48
2019-05-26T00:16:38.907Z,13.78
2019-05-26T00:19:13.041Z,18.50
2019-05-26T00:21:46.466Z,20.43
2019-05-26T00:24:20.042Z,21.50
2019-05-26T00:26:53.488Z,20.27
2019-05-26T00:29:27.231Z,19.80
2019-05-26T00:32:00.984Z,18.30
2019-05-26T00:34:35.147Z,14.40
2019-05-26T00:37:08.892Z,12.55
2019-05-26T00:39:42.565Z,10.60
2019-05-26T00:42:16.242Z,9.28
2019-05-26T00:44:51.113Z,8.73
2019-05-26T00:47:24.824Z,9.53
2019-05-26T00:49:58.585Z,9.75
2019-05-26T00:52:33.483Z,9.38
2019-05-26T00:55:07.562Z,9.30
2019-05-26T00:57:41.241Z,8.63
2019-05-26T01:00:15.537Z,8.10
2019-05-26T01:02:49.721Z,8.13
2019-05-26T01:05:23.539Z,8.98
2019-05-26T01:08:06.348Z,8.48
2019-05-26T01:10:33.979Z,8.30
2019-05-26T01:13:09.828Z,8.18
2019-05-26T01:15:44.905Z,8.38
2019-05-26T01:18:19.962Z,8.53
2019-05-26T01:20:53.772Z,7.92
2019-05-26T01:23:27.468Z,8.28
2019-05-26T01:26:01.210Z,9.20
2019-05-26T01:28:34.824Z,8.53
2019-05-26T01:31:10.127Z,8.33
2019-05-26T01:33:44.150Z,8.15
2019-05-26T01:36:19.115Z,8.58
2019-05-26T01:38:55.342Z,8.48
2019-05-26T01:41:29.040Z,8.70
2019-05-26T01:44:03.056Z,9.38
2019-05-26T01:46:37.866Z,8.88
2019-05-26T01:49:11.321Z,8.18
2019-05-26T01:51:45.118Z,8.50
2019-05-26T01:54:18.685Z,8.40
2019-05-26T01:56:52.502Z,8.70
2019-05-26T01:59:26.112Z,9.05
2019-05-26T02:02:00.390Z,8.28
2019-05-26T02:04:34.074Z,7.62
2019-05-26T02:07:07.734Z,8.53
2019-05-26T02:09:41.215Z,8.73
2019-05-26T02:12:14.697Z,9.00
2019-05-26T02:14:50.204Z,8.70
2019-05-26T02:17:23.774Z,8.23
2019-05-26T02:19:57.301Z,8.08
2019-05-26T02:22:30.823Z,7.97
2019-05-26T02:25:04.471Z,7.87
2019-05-26T02:27:37.953Z,8.88
2019-05-26T02:30:12.028Z,6.87
2019-05-26T02:32:45.551Z,7.67
2019-05-26T02:35:19.417Z,7.62
2019-05-26T02:37:52.909Z,8.13
2019-05-26T02:40:28.028Z,6.30
2019-05-26T02:43:01.530Z,7.80
2019-05-26T02:45:35.156Z,7.37
2019-05-26T02:48:08.937Z,8.40
2019-05-26T02:50:42.576Z,8.18
2019-05-26T02:53:16.246Z,8.23
2019-05-26T02:55:50.009Z,7.30
2019-05-26T02:58:24.056Z,8.00
2019-05-26T03:00:57.675Z,7.83
2019-05-26T03:03:31.459Z,7.78
2019-05-26T03:06:06.683Z,7.03
2019-05-26T03:08:41.246Z,8.28
2019-05-26T03:11:16.150Z,7.97
2019-05-26T03:13:51.649Z,7.15
2019-05-26T03:16:25.151Z,7.67
2019-05-26T03:19:01.067Z,7.83
2019-05-26T03:21:36.980Z,7.72
2019-05-26T03:24:10.908Z,7.33
2019-05-26T03:26:44.503Z,7.85
2019-05-26T03:29:18.095Z,7.85
2019-05-26T03:31:51.645Z,7.95
2019-05-26T03:34:25.455Z,7.60
2019-05-26T03:36:59.189Z,7.05
2019-05-26T03:39:44.192Z,7.40
2019-05-26T03:42:08.113Z,6.58
2019-05-26T03:44:41.659Z,6.92
2019-05-26T03:47:16.836Z,7.05
2019-05-26T03:49:50.407Z,6.80
2019-05-26T03:52:24.329Z,6.45
2019-05-26T03:54:57.840Z,7.00
2019-05-26T03:57:31.331Z,6.62
2019-05-26T04:00:05.565Z,6.58
2019-05-26T04:02:39.193Z,7.05
2019-05-26T04:05:12.855Z,6.65
2019-05-26T04:07:46.362Z,6.60
2019-05-26T04:10:19.944Z,6.37
2019-05-26T04:12:53.560Z,6.37
2019-05-26T04:15:27.374Z,6.10
2019-05-26T04:18:01.159Z,5.97
2019-05-26T04:20:34.651Z,6.40
2019-05-26T04:23:08.200Z,5.83
2019-05-26T04:25:42.764Z,5.97
2019-05-26T04:28:16.226Z,6.17
2019-05-26T04:30:49.654Z,5.87
2019-05-26T04:33:23.048Z,5.97
2019-05-26T04:35:56.547Z,6.40
2019-05-26T04:38:29.957Z,6.15
2019-05-26T04:41:03.399Z,6.28
2019-05-26T04:43:36.855Z,7.40
2019-05-26T04:46:10.328Z,7.10
2019-05-26T04:48:43.862Z,7.03
2019-05-26T04:51:18.459Z,6.97
2019-05-26T04:53:52.627Z,6.00
2019-05-26T04:56:26.236Z,6.55
2019-05-26T04:58:59.713Z,5.95
2019-05-26T05:01:33.296Z,6.28
2019-05-26T05:04:06.929Z,5.85
2019-05-26T05:06:42.795Z,6.72
2019-05-26T05:09:16.506Z,5.37
2019-05-26T05:11:50.436Z,7.25
2019-05-26T05:14:25.183Z,6.17
2019-05-26T05:16:58.831Z,6.03
2019-05-26T05:19:32.413Z,5.80
2019-05-26T05:22:06.135Z,6.15
2019-05-26T05:24:39.727Z,6.53
2019-05-26T05:27:13.347Z,6.75
2019-05-26T05:29:47.388Z,6.47
2019-05-26T05:32:20.997Z,6.17
2019-05-26T05:34:54.638Z,6.37
2019-05-26T05:37:28.864Z,5.90
2019-05-26T05:40:04.220Z,6.08
2019-05-26T05:42:37.702Z,5.92
2019-05-26T05:45:12.819Z,7.50
2019-05-26T05:47:48.459Z,6.50
2019-05-26T05:50:25.422Z,6.47
2019-05-26T05:52:58.941Z,6.72
2019-05-26T05:55:32.476Z,6.62
2019-05-26T05:58:06.016Z,6.33
2019-05-26T06:00:39.509Z,6.45
2019-05-26T06:03:12.961Z,5.97
2019-05-26T06:05:46.602Z,6.22
2019-05-26T06:08:20.393Z,5.70
2019-05-26T06:10:54.144Z,6.03
2019-05-26T06:13:28.909Z,6.28
2019-05-26T06:16:02.625Z,5.67
2019-05-26T06:18:36.305Z,6.97
2019-05-26T06:21:10.106Z,6.50
2019-05-26T06:23:43.794Z,6.50
2019-05-26T06:26:17.546Z,6.50
2019-05-26T06:28:52.519Z,6.97
2019-05-26T06:31:26.884Z,6.28
2019-05-26T06:34:01.587Z,5.92
2019-05-26T06:36:36.362Z,5.30
2019-05-26T06:39:10.878Z,6.42
2019-05-26T06:41:45.133Z,4.85
2019-05-26T06:44:18.983Z,4.80
2019-05-26T06:46:55.555Z,4.67
2019-05-26T06:49:29.347Z,5.17
2019-05-26T06:52:03.103Z,4.70
2019-05-26T06:54:37.060Z,5.17
2019-05-26T06:57:12.288Z,5.85
2019-05-26T06:59:46.450Z,4.15
2019-05-26T07:02:20.340Z,3.65
2019-05-26T07:04:54.172Z,4.12
2019-05-26T07:07:28.060Z,4.10
2019-05-26T07:10:01.897Z,5.00
2019-05-26T07:12:38.881Z,4.30
2019-05-26T07:15:13.706Z,4.30
2019-05-26T07:17:47.471Z,4.42
2019-05-26T07:20:25.096Z,4.70
2019-05-26T07:22:58.634Z,3.55
2019-05-26T07:25:32.416Z,3.67
2019-05-26T07:28:07.006Z,3.47
2019-05-26T07:30:44.029Z,3.95
2019-05-26T07:33:17.872Z,3.90
2019-05-26T07:35:51.443Z,4.10
2019-05-26T07:38:25.273Z,3.62
2019-05-26T07:40:59.052Z,4.33
2019-05-26T07:43:33.466Z,3.58
2019-05-26T07:46:07.274Z,3.90
2019-05-26T07:48:41.058Z,3.83
2019-05-26T07:51:16.455Z,3.75
2019-05-26T07:53:55.854Z,3.45
2019-05-26T07:56:27.488Z,3.15
2019-05-26T07:59:00.845Z,3.70
2019-05-26T08:01:36.186Z,3.70
2019-05-26T08:04:09.387Z,3.75
2019-05-26T08:06:43.000Z,3.05
2019-05-26T08:09:17.279Z,3.87
2019-05-26T08:11:50.946Z,7.08
2019-05-26T08:14:24.257Z,10.03
2019-05-26T08:16:57.500Z,5.80
2019-05-26T08:19:30.917Z,3.58
2019-05-26T08:22:04.158Z,3.95
2019-05-26T08:24:37.514Z,2.72
2019-05-26T08:27:10.827Z,3.22
2019-05-26T08:29:44.056Z,3.25
2019-05-26T08:32:17.323Z,3.65
2019-05-26T08:34:50.637Z,3.77
2019-05-26T08:37:23.893Z,5.55
2019-05-26T08:39:59.588Z,6.75
2019-05-26T08:42:44.107Z,10.15
2019-05-26T08:45:08.290Z,4.25
2019-05-26T08:47:41.434Z,4.33
2019-05-26T08:50:15.035Z,3.52
2019-05-26T08:52:48.172Z,3.40
2019-05-26T08:55:23.188Z,3.62
2019-05-26T08:57:56.426Z,3.05
2019-05-26T09:00:29.736Z,3.83
2019-05-26T09:03:02.999Z,2.77
2019-05-26T09:05:36.246Z,3.00
2019-05-26T09:08:09.481Z,2.85
2019-05-26T09:10:42.914Z,3.27
2019-05-26T09:13:16.319Z,3.17
2019-05-26T09:15:49.553Z,2.98
2019-05-26T09:18:22.901Z,3.00
2019-05-26T09:20:56.146Z,3.27
2019-05-26T09:23:29.355Z,3.85
2019-05-26T09:26:02.665Z,3.77
2019-05-26T09:28:35.974Z,3.70
2019-05-26T09:31:09.464Z,3.58
2019-05-26T09:33:42.573Z,2.80
2019-05-26T09:36:15.784Z,3.50
2019-05-26T09:38:49.033Z,3.25
2019-05-26T09:41:22.668Z,3.40
2019-05-26T09:43:56.542Z,3.30
2019-05-26T09:46:30.048Z,3.77
2019-05-26T09:49:03.973Z,3.58
2019-05-26T09:51:40.242Z,3.40
2019-05-26T09:54:14.028Z,3.70
2019-05-26T09:56:47.901Z,3.25
2019-05-26T09:59:21.664Z,4.53
2019-05-26T10:01:54.955Z,4.42
2019-05-26T10:04:28.332Z,3.02
2019-05-26T10:07:01.607Z,3.30
2019-05-26T10:09:35.108Z,4.20
2019-05-26T10:12:08.578Z,3.20
2019-05-26T10:14:42.071Z,2.95
2019-05-26T10:17:15.507Z,2.92
2019-05-26T10:19:49.054Z,2.67
2019-05-26T10:22:22.394Z,2.50
2019-05-26T10:24:55.706Z,2.30
2019-05-26T10:27:28.992Z,2.45
2019-05-26T10:30:02.325Z,2.33
2019-05-26T10:32:35.642Z,3.08
2019-05-26T10:35:09.191Z,2.55
2019-05-26T10:37:42.330Z,3.33
2019-05-26T10:40:16.198Z,3.67
2019-05-26T10:42:49.435Z,2.70
2019-05-26T10:45:23.777Z,2.20
2019-05-26T10:47:57.274Z,2.22
2019-05-26T10:50:30.499Z,2.35
2019-05-26T10:53:04.116Z,2.20
2019-05-26T10:55:38.378Z,2.12
2019-05-26T10:58:11.440Z,1.98
2019-05-26T11:00:44.684Z,2.30
2019-05-26T11:03:17.896Z,2.35
2019-05-26T11:05:51.149Z,2.00
2019-05-26T11:08:24.788Z,2.60
2019-05-26T11:10:58.225Z,1.77
2019-05-26T11:13:31.456Z,1.70
2019-05-26T11:16:04.567Z,2.27
2019-05-26T11:18:37.857Z,2.05
2019-05-26T11:21:12.534Z,2.75
2019-05-26T11:23:46.334Z,2.80
2019-05-26T11:26:19.636Z,2.30
2019-05-26T11:28:53.102Z,2.17
2019-05-26T11:31:26.817Z,1.60
2019-05-26T11:34:01.462Z,1.27
2019-05-26T11:36:34.756Z,2.15
2019-05-26T11:39:09.486Z,1.65
2019-05-26T11:41:42.871Z,1.70
2019-05-26T11:44:18.226Z,1.67
2019-05-26T11:46:51.214Z,2.05
2019-05-26T11:49:24.544Z,1.47
2019-05-26T11:51:57.896Z,2.70
2019-05-26T11:54:34.292Z,1.70
2019-05-26T11:57:06.258Z,2.42
2019-05-26T11:59:39.509Z,1.55
2019-05-26T12:02:12.780Z,1.80
2019-05-26T12:04:46.024Z,2.10
2019-05-26T12:07:19.942Z,2.95
2019-05-26T12:09:53.202Z,1.92
2019-05-26T12:12:26.565Z,2.22
2019-05-26T12:14:59.802Z,1.60
2019-05-26T12:17:33.052Z,2.33
2019-05-26T12:20:06.957Z,1.90
2019-05-26T12:22:40.764Z,1.85
2019-05-26T12:25:14.196Z,1.75
2019-05-26T12:27:47.561Z,1.90
2019-05-26T12:30:21.308Z,3.27
2019-05-26T12:32:54.696Z,2.22
2019-05-26T12:35:43.881Z,2.12
2019-05-26T12:38:20.498Z,1.92
2019-05-26T12:40:54.086Z,1.60
2019-05-26T12:43:27.971Z,1.52
2019-05-26T12:46:01.401Z,1.40
2019-05-26T12:48:34.785Z,1.98
2019-05-26T12:51:08.161Z,2.00
2019-05-26T12:53:41.439Z,2.58
2019-05-26T12:56:14.938Z,2.27
2019-05-26T12:58:48.365Z,2.20
2019-05-26T13:01:21.742Z,4.28
2019-05-26T13:03:55.651Z,3.47
2019-05-26T13:06:30.451Z,2.50
2019-05-26T13:09:03.951Z,3.52
2019-05-26T13:11:37.332Z,3.67
2019-05-26T13:14:10.814Z,3.95
2019-05-26T13:16:44.262Z,4.97
2019-05-26T13:19:17.690Z,3.12
2019-05-26T13:21:51.146Z,1.65
2019-05-26T13:24:24.392Z,2.42
2019-05-26T13:26:57.595Z,3.50
2019-05-26T13:29:32.170Z,2.35
2019-05-26T13:32:05.390Z,2.15
2019-05-26T13:34:38.872Z,1.77
2019-05-26T13:37:12.258Z,1.27
2019-05-26T13:39:45.757Z,1.37
2019-05-26T13:42:19.198Z,2.00
2019-05-26T13:44:52.734Z,1.35
2019-05-26T13:47:26.702Z,1.87
2019-05-26T13:50:00.010Z,1.42
2019-05-26T13:52:33.399Z,1.40
2019-05-26T13:55:07.587Z,2.77
2019-05-26T13:57:40.925Z,1.77
2019-05-26T14:00:16.487Z,2.95
2019-05-26T14:02:50.466Z,1.27
2019-05-26T14:05:24.115Z,1.52
2019-05-26T14:07:57.329Z,1.60
2019-05-26T14:10:36.618Z,1.55
2019-05-26T14:13:10.812Z,1.75
2019-05-26T14:15:45.052Z,4.28
2019-05-26T14:18:18.369Z,1.60
2019-05-26T14:20:51.679Z,1.60
2019-05-26T14:23:24.941Z,2.10
2019-05-26T14:25:58.308Z,1.10
2019-05-26T14:28:31.765Z,1.55
2019-05-26T14:31:06.124Z,1.45
2019-05-26T14:33:39.507Z,1.37
2019-05-26T14:36:12.826Z,0.98
2019-05-26T14:38:46.019Z,1.90
2019-05-26T14:41:19.332Z,3.20
2019-05-26T14:43:52.619Z,1.55
2019-05-26T14:46:25.849Z,2.17
2019-05-26T14:48:59.298Z,1.22
2019-05-26T14:51:32.510Z,1.52
2019-05-26T14:54:05.782Z,1.27
2019-05-26T14:56:40.212Z,1.07
2019-05-26T14:59:13.616Z,1.30
2019-05-26T15:01:46.965Z,1.10
2019-05-26T15:04:20.442Z,1.25
2019-05-26T15:06:53.527Z,1.45
2019-05-26T15:09:26.670Z,1.57
2019-05-26T15:12:01.012Z,1.60
2019-05-26T15:14:34.190Z,1.55
2019-05-26T15:17:07.371Z,1.22
2019-05-26T15:19:40.598Z,1.50
2019-05-26T15:22:13.752Z,1.20
2019-05-26T15:24:46.964Z,1.35
2019-05-26T15:27:20.208Z,1.37
2019-05-26T15:29:53.493Z,1.85
2019-05-26T15:32:26.783Z,1.25
2019-05-26T15:35:00.099Z,1.30
2019-05-26T15:37:33.363Z,1.47
2019-05-26T15:40:07.155Z,1.22
2019-05-26T15:42:40.523Z,1.35
2019-05-26T15:45:14.022Z,1.50
2019-05-26T15:47:47.288Z,1.40
2019-05-26T15:50:20.723Z,1.40
2019-05-26T15:52:54.048Z,1.40
2019-05-26T15:55:27.321Z,1.30
2019-05-26T15:58:00.686Z,1.62
2019-05-26T16:00:33.918Z,1.50
2019-05-26T16:03:07.276Z,1.70
2019-05-26T16:05:40.608Z,1.65
2019-05-26T16:08:13.897Z,1.80
2019-05-26T16:10:47.229Z,1.50
2019-05-26T16:13:20.493Z,1.40
2019-05-26T16:15:53.776Z,1.42
2019-05-26T16:18:27.052Z,1.30
2019-05-26T16:21:03.309Z,2.08
2019-05-26T16:23:35.018Z,1.72
2019-05-26T16:26:09.370Z,1.95
2019-05-26T16:28:42.623Z,1.77
2019-05-26T16:31:16.093Z,1.50
2019-05-26T16:33:49.345Z,1.82
2019-05-26T16:36:24.178Z,1.60
2019-05-26T16:38:57.595Z,1.50
2019-05-26T16:41:32.558Z,2.00
2019-05-26T16:44:05.890Z,1.50
2019-05-26T16:46:39.418Z,1.70
2019-05-26T16:49:12.590Z,1.77
2019-05-26T16:51:45.971Z,2.60
2019-05-26T16:54:19.233Z,1.70
2019-05-26T16:56:52.533Z,1.87
2019-05-26T16:59:25.724Z,1.75
2019-05-26T17:01:58.901Z,2.12
2019-05-26T17:04:33.184Z,2.85
2019-05-26T17:07:06.479Z,6.95
2019-05-26T17:09:39.732Z,5.70
2019-05-26T17:12:12.974Z,11.63
2019-05-26T17:14:46.318Z,13.13
2019-05-26T17:17:19.554Z,3.00
2019-05-26T17:19:53.222Z,17.32
2019-05-26T17:22:26.548Z,6.45
2019-05-26T17:25:00.149Z,26.82
2019-05-26T17:27:33.393Z,4.20
2019-05-26T17:30:06.993Z,7.78
2019-05-26T17:32:40.245Z,4.72
2019-05-26T17:35:13.695Z,5.15
2019-05-26T17:37:46.928Z,3.45
2019-05-26T17:40:22.982Z,2.60
2019-05-26T17:42:56.224Z,2.30
2019-05-26T17:45:29.554Z,2.60
2019-05-26T17:48:02.646Z,2.08
2019-05-26T17:50:35.973Z,2.60
2019-05-26T17:53:09.217Z,2.42
2019-05-26T17:55:42.551Z,2.65
2019-05-26T17:58:15.841Z,2.67
2019-05-26T18:00:49.178Z,2.33
2019-05-26T18:03:22.311Z,3.33
2019-05-26T18:05:55.584Z,3.40
2019-05-26T18:08:31.330Z,2.40
2019-05-26T18:11:04.584Z,2.40
2019-05-26T18:13:37.906Z,2.27
2019-05-26T18:16:11.138Z,2.60
2019-05-26T18:18:44.313Z,2.20
2019-05-26T18:21:17.534Z,3.08
2019-05-26T18:23:50.831Z,2.55
2019-05-26T18:26:24.013Z,2.80
2019-05-26T18:28:57.220Z,2.92
2019-05-26T18:31:30.482Z,3.30
2019-05-26T18:34:03.776Z,4.03
2019-05-26T18:36:37.015Z,3.70
2019-05-26T18:39:11.903Z,3.30
2019-05-26T18:41:45.260Z,2.85
2019-05-26T18:44:18.496Z,2.52
2019-05-26T18:46:53.676Z,2.75
2019-05-26T18:49:26.880Z,2.90
2019-05-26T18:52:00.963Z,2.58
2019-05-26T18:54:34.510Z,2.70
2019-05-26T18:57:07.693Z,2.45
2019-05-26T18:59:41.020Z,2.70
2019-05-26T19:02:14.250Z,2.70
2019-05-26T19:04:48.026Z,2.98
2019-05-26T19:07:32.669Z,3.02
2019-05-26T19:10:09.478Z,3.35
2019-05-26T19:12:42.804Z,4.03
2019-05-26T19:15:16.734Z,3.67
2019-05-26T19:17:49.917Z,3.80
2019-05-26T19:20:23.711Z,3.40
2019-05-26T19:23:04.753Z,3.87
2019-05-26T19:25:46.444Z,4.30
2019-05-26T19:28:22.802Z,4.50
2019-05-26T19:31:00.198Z,3.72
2019-05-26T19:33:36.995Z,3.75
2019-05-26T19:36:10.900Z,3.85
2019-05-26T19:38:45.460Z,3.98
2019-05-26T19:41:18.837Z,4.37
2019-05-26T19:43:52.079Z,4.97
2019-05-26T19:46:25.365Z,4.72
2019-05-26T19:48:58.602Z,5.03
2019-05-26T19:51:32.822Z,4.62
2019-05-26T19:54:07.192Z,4.50
2019-05-26T19:56:42.558Z,4.78
2019-05-26T19:59:19.169Z,5.35
2019-05-26T20:01:52.500Z,5.42
2019-05-26T20:04:25.860Z,5.25
2019-05-26T20:06:59.192Z,4.92
2019-05-26T20:09:32.902Z,5.25
2019-05-26T20:12:06.674Z,6.97
2019-05-26T20:14:40.399Z,5.78
2019-05-26T20:17:13.712Z,6.35
2019-05-26T20:19:46.888Z,6.35
2019-05-26T20:22:20.032Z,6.00
2019-05-26T20:24:54.186Z,5.58
2019-05-26T20:27:27.779Z,5.55
2019-05-26T20:30:01.034Z,5.05
2019-05-26T20:32:34.240Z,5.22
2019-05-26T20:35:08.024Z,5.67
2019-05-26T20:37:41.294Z,6.30
2019-05-26T20:40:14.934Z,6.10
2019-05-26T20:42:48.721Z,5.83
2019-05-26T20:45:22.896Z,6.15
2019-05-26T20:48:01.891Z,5.80
2019-05-26T20:50:36.047Z,5.80
2019-05-26T20:53:24.635Z,6.05
2019-05-26T20:55:58.769Z,5.75
2019-05-26T20:58:32.172Z,6.17
2019-05-26T21:01:05.811Z,6.42
2019-05-26T21:03:39.466Z,6.20
2019-05-26T21:06:12.768Z,6.42
2019-05-26T21:08:46.141Z,8.33
2019-05-26T21:11:19.512Z,7.72
2019-05-26T21:13:53.094Z,6.95
2019-05-26T21:16:26.809Z,6.50
2019-05-26T21:19:01.266Z,6.22
2019-05-26T21:21:34.654Z,5.65
2019-05-26T21:24:08.032Z,6.50
2019-05-26T21:26:41.462Z,5.60
2019-05-26T21:29:15.630Z,6.62
2019-05-26T21:31:57.411Z,6.17
2019-05-26T21:34:30.884Z,6.00
2019-05-26T21:37:04.956Z,6.12
2019-05-26T21:39:38.357Z,6.42
2019-05-26T21:42:15.799Z,5.45
2019-05-26T21:44:50.366Z,6.12
2019-05-26T21:47:23.621Z,6.22
2019-05-26T21:49:56.939Z,5.65
2019-05-26T21:52:32.186Z,5.40
2019-05-26T21:55:21.624Z,6.28
2019-05-26T21:57:55.262Z,5.87
2019-05-26T22:00:39.330Z,5.45
2019-05-26T22:03:12.950Z,5.67
2019-05-26T22:05:46.384Z,5.90
2019-05-26T22:08:19.823Z,6.70
2019-05-26T22:10:53.089Z,6.95
2019-05-26T22:13:26.425Z,6.20
2019-05-26T22:15:59.761Z,5.72
2019-05-26T22:18:33.161Z,6.50
2019-05-26T22:21:06.400Z,6.60
2019-05-26T22:23:39.660Z,6.60
2019-05-26T22:26:12.901Z,5.67
2019-05-26T22:28:46.628Z,5.97
2019-05-26T22:31:19.890Z,6.03
2019-05-26T22:33:53.156Z,5.78
2019-05-26T22:36:26.494Z,5.10
2019-05-26T22:38:59.785Z,5.75
2019-05-26T22:41:33.048Z,6.83
2019-05-26T22:44:06.423Z,5.95
2019-05-26T22:46:39.755Z,5.85
2019-05-26T22:49:13.110Z,6.37
2019-05-26T22:51:46.451Z,5.97
2019-05-26T22:54:19.710Z,6.75
2019-05-26T22:56:52.954Z,6.03
2019-05-26T22:59:26.324Z,6.03
2019-05-26T23:01:59.638Z,6.78
2019-05-26T23:04:33.075Z,6.78
2019-05-26T23:07:06.143Z,6.15
2019-05-26T23:09:39.306Z,6.62
2019-05-26T23:12:13.881Z,6.72
2019-05-26T23:14:48.430Z,6.95
2019-05-26T23:17:23.139Z,6.05
2019-05-26T23:19:57.535Z,6.83
2019-05-26T23:22:32.235Z,6.45
2019-05-26T23:25:07.522Z,6.47
2019-05-26T23:27:42.154Z,6.92
2019-05-26T23:30:16.875Z,6.80
2019-05-26T23:32:51.870Z,7.08
2019-05-26T23:35:26.553Z,7.42
2019-05-26T23:38:01.244Z,6.75
2019-05-26T23:40:35.071Z,7.58
2019-05-26T23:43:10.143Z,8.10
2019-05-26T23:45:43.479Z,7.15
2019-05-26T23:48:16.802Z,7.60
2019-05-26T23:50:49.980Z,7.20
2019-05-26T23:53:23.061Z,7.25
2019-05-26T23:55:56.418Z,7.65
2019-05-26T23:58:29.723Z,7.95
